createdAt,value
2023-04-25T00:00:22.280Z,2.00
2023-04-25T00:03:26.806Z,2.22
2023-04-25T00:06:31.234Z,2.40
2023-04-25T00:09:34.235Z,2.45
2023-04-25T00:12:38.692Z,2.50
2023-04-25T00:15:42.963Z,2.45
2023-04-25T00:18:47.622Z,2.50
2023-04-25T00:21:50.353Z,2.30
2023-04-25T00:24:54.746Z,1.95
2023-04-25T00:27:57.686Z,2.80
2023-04-25T00:31:00.901Z,3.15
2023-04-25T00:34:03.848Z,2.63
2023-04-25T00:37:07.401Z,2.90
2023-04-25T00:40:13.154Z,2.90
2023-04-25T00:43:15.816Z,2.20
2023-04-25T00:46:21.243Z,3.05
2023-04-25T00:49:23.958Z,2.53
2023-04-25T00:52:26.678Z,2.40
2023-04-25T00:55:29.578Z,2.45
2023-04-25T00:58:32.541Z,2.75
2023-04-25T01:01:35.386Z,3.25
2023-04-25T01:04:38.213Z,3.15
2023-04-25T01:07:42.169Z,2.70
2023-04-25T01:10:45.059Z,2.85
2023-04-25T01:13:47.893Z,4.03
2023-04-25T01:16:50.796Z,3.22
2023-04-25T01:19:53.669Z,3.50
2023-04-25T01:22:58.772Z,3.53
2023-04-25T01:26:02.107Z,3.50
2023-04-25T01:29:06.229Z,3.95
2023-04-25T01:32:09.347Z,4.18
2023-04-25T01:35:13.050Z,3.75
2023-04-25T01:38:16.090Z,4.80
2023-04-25T01:41:19.286Z,4.50
2023-04-25T01:44:22.409Z,4.30
2023-04-25T01:47:25.222Z,3.35
2023-04-25T01:50:27.976Z,3.40
2023-04-25T01:53:30.992Z,3.35
2023-04-25T01:56:34.696Z,3.60
2023-04-25T01:59:38.901Z,3.97
2023-04-25T02:03:01.921Z,4.07
2023-04-25T02:06:08.723Z,4.40
2023-04-25T02:09:17.126Z,3.73
2023-04-25T02:12:24.967Z,3.95
2023-04-25T02:15:30.840Z,3.90
2023-04-25T02:18:40.400Z,3.88
2023-04-25T02:21:43.320Z,3.88
2023-04-25T02:24:47.744Z,4.03
2023-04-25T02:27:51.882Z,3.60
2023-04-25T02:30:54.519Z,4.22
2023-04-25T02:33:57.400Z,4.07
2023-04-25T02:37:00.225Z,3.65
2023-04-25T02:40:04.313Z,3.20
2023-04-25T02:43:08.686Z,3.10
2023-04-25T02:46:11.542Z,3.03
2023-04-25T02:49:16.210Z,3.22
2023-04-25T02:52:19.064Z,3.53
2023-04-25T02:55:29.133Z,3.67
2023-04-25T02:58:33.531Z,3.60
2023-04-25T03:01:36.228Z,3.40
2023-04-25T03:04:39.238Z,3.63
2023-04-25T03:07:42.157Z,4.00
2023-04-25T03:10:47.284Z,4.60
2023-04-25T03:13:54.269Z,4.03
2023-04-25T03:16:59.506Z,4.55
2023-04-25T03:20:02.315Z,4.57
2023-04-25T03:23:05.652Z,4.57
2023-04-25T03:26:08.365Z,4.57
2023-04-25T03:29:11.255Z,5.38
2023-04-25T03:32:15.504Z,4.80
2023-04-25T03:35:18.614Z,5.63
2023-04-25T03:38:21.494Z,4.93
2023-04-25T03:41:24.408Z,5.75
2023-04-25T03:44:31.464Z,5.15
2023-04-25T03:47:35.751Z,5.07
2023-04-25T03:50:38.811Z,4.88
2023-04-25T03:53:42.059Z,5.03
2023-04-25T03:57:14.391Z,4.65
2023-04-25T04:00:18.969Z,4.32
2023-04-25T04:03:22.131Z,4.22
2023-04-25T04:06:26.884Z,3.97
2023-04-25T04:09:38.071Z,4.47
2023-04-25T04:15:48.302Z,4.20
2023-04-25T04:18:51.954Z,4.40
2023-04-25T04:21:54.698Z,4.53
2023-04-25T04:24:58.177Z,3.88
2023-04-25T04:28:19.728Z,5.00
2023-04-25T04:31:36.249Z,3.80
2023-04-25T04:34:40.985Z,4.20
2023-04-25T04:37:45.226Z,4.60
2023-04-25T04:40:49.578Z,3.90
2023-04-25T04:44:15.452Z,4.30
2023-04-25T04:47:24.998Z,4.43
2023-04-25T04:50:40.199Z,3.95
2023-04-25T04:53:59.525Z,4.57
2023-04-25T04:57:25.173Z,3.90
2023-04-25T05:00:49.031Z,3.95
2023-04-25T05:04:21.384Z,4.93
2023-04-25T05:07:42.921Z,5.13
2023-04-25T05:11:22.374Z,4.95
2023-04-25T05:15:00.605Z,5.05
2023-04-25T05:18:06.335Z,5.50
2023-04-25T05:21:29.673Z,5.88
2023-04-25T05:24:56.342Z,4.57
2023-04-25T05:28:07.363Z,4.32
2023-04-25T05:31:28.809Z,5.68
2023-04-25T05:34:38.119Z,5.13
2023-04-25T05:37:43.988Z,4.97
2023-04-25T05:40:49.231Z,3.75
2023-04-25T05:44:14.575Z,4.75
2023-04-25T05:47:37.529Z,4.55
2023-04-25T05:50:45.585Z,5.35
2023-04-25T05:54:07.224Z,4.55
2023-04-25T05:57:21.281Z,4.95
2023-04-25T06:00:24.997Z,6.13
2023-04-25T06:03:28.232Z,5.13
2023-04-25T06:06:34.200Z,5.20
2023-04-25T06:09:37.079Z,5.05
2023-04-25T06:12:39.904Z,4.65
2023-04-25T06:15:42.891Z,3.83
2023-04-25T06:18:45.894Z,3.50
2023-04-25T06:21:49.457Z,2.72
2023-04-25T06:24:52.244Z,2.95
2023-04-25T06:27:55.079Z,2.00
2023-04-25T06:30:58.218Z,2.42
2023-04-25T06:34:01.571Z,2.17
2023-04-25T06:37:06.999Z,2.60
2023-04-25T06:40:10.320Z,2.25
2023-04-25T06:43:13.208Z,2.00
2023-04-25T06:46:31.215Z,3.55
2023-04-25T06:49:35.521Z,1.90
2023-04-25T06:52:39.290Z,2.50
2023-04-25T06:55:42.495Z,2.17
2023-04-25T06:58:56.951Z,4.00
2023-04-25T07:02:20.087Z,3.17
2023-04-25T07:05:23.228Z,2.72
2023-04-25T07:08:26.533Z,3.00
2023-04-25T07:11:30.015Z,1.35
2023-04-25T07:14:33.045Z,1.35
2023-04-25T07:17:36.311Z,4.70
2023-04-25T07:20:39.424Z,3.45
2023-04-25T07:23:43.173Z,1.10
2023-04-25T07:26:51.381Z,1.30
2023-04-25T07:30:11.587Z,1.33
2023-04-25T07:33:16.167Z,0.90
2023-04-25T07:36:19.160Z,1.60
2023-04-25T07:39:23.788Z,1.25
2023-04-25T07:42:27.105Z,1.42
2023-04-25T07:45:30.539Z,2.15
2023-04-25T07:48:35.991Z,0.95
2023-04-25T07:51:40.529Z,0.80
2023-04-25T07:54:47.092Z,0.75
2023-04-25T07:57:55.232Z,1.10
2023-04-25T08:00:58.252Z,1.60
2023-04-25T08:04:21.643Z,0.77
2023-04-25T08:07:29.648Z,0.82
2023-04-25T08:10:38.103Z,0.82
2023-04-25T08:13:41.239Z,0.80
2023-04-25T08:16:44.427Z,1.00
2023-04-25T08:19:47.761Z,0.95
2023-04-25T08:22:59.820Z,0.93
2023-04-25T08:26:18.078Z,0.80
2023-04-25T08:29:26.196Z,1.45
2023-04-25T08:32:30.759Z,1.10
2023-04-25T08:35:57.383Z,1.00
2023-04-25T08:39:01.713Z,1.45
2023-04-25T08:42:09.139Z,1.38
2023-04-25T08:45:12.865Z,1.33
2023-04-25T08:48:19.108Z,1.23
2023-04-25T08:51:26.412Z,1.35
2023-04-25T08:54:34.405Z,0.82
2023-04-25T08:57:40.324Z,1.25
2023-04-25T09:00:44.756Z,1.23
2023-04-25T09:03:48.876Z,1.40
2023-04-25T09:06:52.385Z,1.15
2023-04-25T09:09:55.637Z,1.25
2023-04-25T09:13:06.176Z,1.10
2023-04-25T09:16:18.900Z,1.00
2023-04-25T09:19:45.494Z,1.25
2023-04-25T09:23:06.837Z,1.55
2023-04-25T09:26:17.436Z,1.20
2023-04-25T09:29:31.011Z,1.35
2023-04-25T09:32:34.361Z,1.48
2023-04-25T09:35:43.929Z,1.52
2023-04-25T09:38:54.468Z,1.40
2023-04-25T09:42:05.350Z,1.38
2023-04-25T09:45:08.776Z,1.58
2023-04-25T09:48:21.869Z,2.47
2023-04-25T09:51:29.073Z,1.88
2023-04-25T09:58:05.560Z,1.73
2023-04-25T10:01:10.348Z,1.85
2023-04-25T10:04:31.164Z,1.80
2023-04-25T10:07:40.261Z,1.88
2023-04-25T10:10:48.242Z,1.98
2023-04-25T10:13:52.373Z,1.60
2023-04-25T10:16:56.138Z,1.73
2023-04-25T10:19:58.951Z,1.67
2023-04-25T10:23:18.342Z,1.70
2023-04-25T10:26:21.474Z,1.90
2023-04-25T10:29:27.859Z,2.15
2023-04-25T10:32:32.583Z,1.70
2023-04-25T10:35:36.569Z,1.52
2023-04-25T10:38:39.787Z,1.75
2023-04-25T10:41:53.878Z,2.30
2023-04-25T10:45:09.506Z,1.70
2023-04-25T10:48:31.322Z,1.60
2023-04-25T10:51:54.305Z,2.10
2023-04-25T10:54:58.989Z,4.00
2023-04-25T10:58:02.541Z,2.95
2023-04-25T11:01:05.340Z,1.75
2023-04-25T11:04:08.584Z,1.80
2023-04-25T11:07:15.914Z,1.80
2023-04-25T11:10:21.996Z,2.20
2023-04-25T11:13:32.383Z,1.90
2023-04-25T11:16:35.256Z,2.10
2023-04-25T11:19:38.209Z,2.13
2023-04-25T11:22:44.051Z,2.08
2023-04-25T11:25:46.785Z,2.13
2023-04-25T11:28:54.970Z,2.00
2023-04-25T11:32:02.642Z,1.80
2023-04-25T11:35:07.421Z,2.10
2023-04-25T11:38:13.190Z,1.80
2023-04-25T11:41:18.323Z,2.50
2023-04-25T11:44:21.326Z,1.67
2023-04-25T11:47:32.682Z,2.00
2023-04-25T11:50:35.592Z,2.30
2023-04-25T11:53:42.608Z,2.00
2023-04-25T11:59:48.871Z,2.20
2023-04-25T12:02:56.552Z,1.70
2023-04-25T12:06:05.583Z,1.90
2023-04-25T12:09:14.729Z,1.67
2023-04-25T12:12:17.863Z,1.90
2023-04-25T12:15:25.741Z,1.88
2023-04-25T12:18:29.213Z,2.40
2023-04-25T12:21:35.362Z,2.63
2023-04-25T12:24:41.776Z,2.00
2023-04-25T12:27:45.364Z,2.30
2023-04-25T12:31:05.871Z,2.35
2023-04-25T12:34:09.434Z,2.22
2023-04-25T12:37:12.841Z,1.95
2023-04-25T12:40:15.746Z,2.10
2023-04-25T12:43:19.357Z,1.95
2023-04-25T12:46:22.204Z,1.73
2023-04-25T12:49:24.985Z,1.70
2023-04-25T12:52:28.200Z,1.92
2023-04-25T12:55:31.042Z,1.85
2023-04-25T12:58:36.932Z,1.17
2023-04-25T13:01:39.985Z,1.50
2023-04-25T13:04:43.174Z,1.95
2023-04-25T13:07:46.903Z,1.85
2023-04-25T13:10:49.846Z,1.65
2023-04-25T13:13:53.274Z,1.83
2023-04-25T13:16:56.558Z,1.45
2023-04-25T13:19:59.587Z,1.75
2023-04-25T13:23:02.819Z,1.75
2023-04-25T13:26:09.158Z,1.70
2023-04-25T13:29:12.071Z,1.80
2023-04-25T13:32:14.910Z,1.35
2023-04-25T13:35:18.564Z,1.55
2023-04-25T13:38:22.994Z,1.83
2023-04-25T13:41:25.981Z,1.58
2023-04-25T13:44:28.976Z,1.80
2023-04-25T13:47:32.448Z,1.88
2023-04-25T13:50:35.186Z,1.80
2023-04-25T13:53:38.358Z,2.22
2023-04-25T13:56:43.670Z,1.70
2023-04-25T13:59:49.511Z,6.25
2023-04-25T14:02:53.420Z,2.65
2023-04-25T14:05:56.620Z,1.50
2023-04-25T14:09:02.252Z,1.23
2023-04-25T14:12:05.187Z,1.30
2023-04-25T14:15:08.619Z,5.30
2023-04-25T14:18:11.483Z,2.00
2023-04-25T14:21:14.465Z,1.60
2023-04-25T14:24:17.329Z,1.58
2023-04-25T14:27:20.248Z,1.95
2023-04-25T14:30:23.389Z,1.70
2023-04-25T14:33:26.441Z,1.60
2023-04-25T14:36:33.204Z,1.95
2023-04-25T14:39:36.313Z,1.45
2023-04-25T14:42:39.166Z,1.25
2023-04-25T14:45:42.416Z,1.15
2023-04-25T14:48:45.386Z,1.10
2023-04-25T14:51:50.155Z,1.92
2023-04-25T14:54:54.454Z,1.50
2023-04-25T14:57:57.746Z,1.88
2023-04-25T15:01:01.418Z,1.30
2023-04-25T15:04:04.957Z,1.63
2023-04-25T15:07:07.863Z,1.50
2023-04-25T15:10:17.914Z,2.58
2023-04-25T15:13:20.838Z,1.85
2023-04-25T15:16:23.723Z,1.20
2023-04-25T15:19:26.515Z,1.50
2023-04-25T15:22:29.562Z,1.50
2023-04-25T15:25:32.565Z,1.52
2023-04-25T15:28:35.327Z,1.60
2023-04-25T15:31:38.219Z,1.70
2023-04-25T15:34:41.129Z,1.45
2023-04-25T15:37:44.141Z,1.40
2023-04-25T15:40:46.948Z,1.73
2023-04-25T15:43:50.110Z,2.13
2023-04-25T15:46:55.077Z,1.52
2023-04-25T15:49:58.293Z,2.10
2023-04-25T15:53:01.170Z,1.48
2023-04-25T15:56:04.965Z,1.48
2023-04-25T15:59:08.280Z,1.30
2023-04-25T16:02:11.115Z,1.45
2023-04-25T16:05:15.869Z,1.70
2023-04-25T16:08:18.859Z,2.20
2023-04-25T16:11:22.237Z,1.88
2023-04-25T16:14:25.246Z,2.15
2023-04-25T16:17:30.934Z,1.65
2023-04-25T16:20:33.837Z,1.77
2023-04-25T16:23:36.844Z,1.70
2023-04-25T16:26:41.185Z,2.47
2023-04-25T16:29:44.140Z,1.40
2023-04-25T16:32:47.155Z,1.58
2023-04-25T16:35:51.250Z,2.40
2023-04-25T16:38:54.367Z,2.40
2023-04-25T16:41:57.532Z,2.05
2023-04-25T16:45:01.104Z,2.33
2023-04-25T16:48:04.076Z,2.20
2023-04-25T16:51:06.834Z,5.55
2023-04-25T16:54:09.641Z,2.38
2023-04-25T16:57:14.569Z,1.67
2023-04-25T17:00:20.909Z,1.92
2023-04-25T17:03:24.246Z,1.52
2023-04-25T17:06:27.501Z,1.63
2023-04-25T17:09:31.022Z,1.85
2023-04-25T17:12:34.082Z,1.70
2023-04-25T17:15:37.064Z,1.55
2023-04-25T17:18:39.812Z,1.45
2023-04-25T17:21:43.026Z,1.42
2023-04-25T17:24:46.189Z,2.17
2023-04-25T17:27:49.233Z,4.70
2023-04-25T17:30:52.140Z,2.50
2023-04-25T17:33:54.920Z,2.20
2023-04-25T17:36:58.014Z,2.70
2023-04-25T17:40:01.205Z,2.00
2023-04-25T17:43:03.964Z,2.80
2023-04-25T17:46:07.089Z,1.58
2023-04-25T17:49:10.152Z,1.85
2023-04-25T17:52:13.061Z,1.55
2023-04-25T17:55:16.120Z,2.00
2023-04-25T17:58:19.154Z,1.90
2023-04-25T18:01:22.215Z,2.05
2023-04-25T18:04:25.432Z,1.80
2023-04-25T18:07:28.251Z,1.45
2023-04-25T18:10:31.608Z,2.00
2023-04-25T18:13:34.408Z,2.25
2023-04-25T18:16:37.316Z,1.90
2023-04-25T18:19:42.741Z,1.95
2023-04-25T18:22:46.708Z,2.25
2023-04-25T18:25:52.409Z,2.45
2023-04-25T18:28:55.277Z,3.35
2023-04-25T18:32:00.814Z,2.90
2023-04-25T18:35:04.549Z,2.75
2023-04-25T18:38:07.901Z,2.85
2023-04-25T18:41:33.912Z,2.60
2023-04-25T18:44:36.905Z,3.50
2023-04-25T18:47:40.120Z,3.17
2023-04-25T18:50:44.582Z,3.13
2023-04-25T18:53:47.322Z,2.92
2023-04-25T18:56:50.123Z,3.17
2023-04-25T18:59:52.902Z,2.75
2023-04-25T19:02:58.357Z,3.60
2023-04-25T19:06:01.733Z,3.67
2023-04-25T19:09:04.701Z,3.35
2023-04-25T19:12:07.820Z,2.72
2023-04-25T19:15:13.056Z,3.30
2023-04-25T19:18:16.126Z,3.28
2023-04-25T19:21:19.121Z,3.30
2023-04-25T19:24:21.918Z,3.65
2023-04-25T19:27:26.969Z,3.97
2023-04-25T19:30:30.405Z,3.55
2023-04-25T19:33:33.454Z,3.25
2023-04-25T19:36:38.904Z,4.30
2023-04-25T19:39:41.952Z,3.63
2023-04-25T19:42:45.768Z,2.97
2023-04-25T19:45:48.791Z,3.70
2023-04-25T19:48:52.256Z,2.90
2023-04-25T19:51:55.496Z,2.35
2023-04-25T19:55:02.690Z,3.08
2023-04-25T20:01:10.894Z,2.72
2023-04-25T20:04:13.893Z,2.03
2023-04-25T20:07:16.864Z,2.00
2023-04-25T20:10:20.309Z,2.08
2023-04-25T20:13:23.172Z,3.08
2023-04-25T20:16:26.488Z,2.25
2023-04-25T20:19:29.498Z,2.28
2023-04-25T20:22:37.420Z,2.15
2023-04-25T20:25:40.250Z,2.28
2023-04-25T20:28:44.920Z,2.25
2023-04-25T20:31:50.173Z,2.42
2023-04-25T20:34:53.121Z,2.70
2023-04-25T20:37:56.565Z,2.15
2023-04-25T20:40:59.949Z,2.58
2023-04-25T20:44:03.462Z,2.25
2023-04-25T20:47:08.869Z,2.40
2023-04-25T20:50:12.734Z,2.42
2023-04-25T20:53:16.047Z,2.28
2023-04-25T20:56:19.376Z,2.10
2023-04-25T20:59:22.479Z,2.80
2023-04-25T21:02:25.359Z,2.22
2023-04-25T21:05:28.321Z,2.58
2023-04-25T21:08:31.098Z,2.13
2023-04-25T21:11:34.131Z,2.33
2023-04-25T21:14:37.087Z,2.45
2023-04-25T21:17:40.598Z,2.13
2023-04-25T21:20:43.485Z,2.13
2023-04-25T21:23:46.440Z,2.25
2023-04-25T21:26:49.214Z,2.80
2023-04-25T21:29:52.169Z,2.40
2023-04-25T21:32:55.050Z,2.58
2023-04-25T21:35:58.031Z,2.40
2023-04-25T21:39:00.802Z,4.18
2023-04-25T21:42:06.768Z,3.67
2023-04-25T21:45:10.570Z,2.40
2023-04-25T21:48:13.794Z,3.10
2023-04-25T21:51:18.117Z,2.97
2023-04-25T21:54:21.089Z,3.17
2023-04-25T21:57:23.838Z,2.63
2023-04-25T22:00:28.078Z,3.17
2023-04-25T22:03:32.287Z,3.53
2023-04-25T22:06:35.074Z,2.75
2023-04-25T22:09:47.371Z,2.80
2023-04-25T22:12:56.987Z,2.50
2023-04-25T22:16:00.323Z,2.78
2023-04-25T22:19:03.187Z,2.03
2023-04-25T22:22:06.545Z,3.38
2023-04-25T22:25:10.331Z,3.00
2023-04-25T22:28:13.574Z,2.88
2023-04-25T22:31:16.799Z,2.67
2023-04-25T22:34:19.765Z,2.85
2023-04-25T22:37:22.575Z,2.78
2023-04-25T22:40:25.305Z,2.80
2023-04-25T22:43:29.586Z,2.78
2023-04-25T22:46:33.018Z,2.80
2023-04-25T22:49:36.100Z,4.20
2023-04-25T22:52:38.778Z,3.05
2023-04-25T22:55:42.024Z,3.72
2023-04-25T22:58:45.400Z,2.97
2023-04-25T23:01:50.218Z,6.43
2023-04-25T23:04:53.520Z,3.13
2023-04-25T23:07:56.543Z,2.75
2023-04-25T23:10:59.472Z,2.90
2023-04-25T23:14:03.060Z,2.88
2023-04-25T23:17:08.183Z,2.72
2023-04-25T23:20:12.299Z,2.80
2023-04-25T23:23:15.334Z,2.03
2023-04-25T23:26:18.386Z,2.22
2023-04-25T23:29:23.372Z,2.80
2023-04-25T23:32:26.850Z,2.40
2023-04-25T23:35:35.523Z,2.17
2023-04-25T23:38:38.386Z,2.30
2023-04-25T23:41:41.195Z,2.17
2023-04-25T23:44:44.150Z,2.25
2023-04-25T23:47:47.082Z,2.55
2023-04-25T23:50:50.024Z,2.70
2023-04-25T23:53:52.776Z,2.20
2023-04-25T23:56:55.381Z,2.05
2023-04-25T23:59:58.332Z,2.03
